Time;durP1;ratioP1;P1;durP2;ratioP2;P2;SDS_P1;SDS_P2;PMS_P1;PMS_P2;Temp;Humidity;BMP_temperature;BMP_pressure;BME280_temperature;BME280_humidity;BME280_pressure;Samples;Min_cycle;Max_cycle;Signal;HPM_P1;HPM_P2
2022/12/15 00:41:06;;;;;;;38.35;19.75;;;;;;;;;;5055512;28;20475;-72
2022/12/15 00:43:33;;;;;;;32.92;18.17;;;;;;;;;;5054395;28;20043;-72
2022/12/15 00:48:44;;;;;;;31.63;17.80;;;;;;;;;;5055075;28;20053;-72
2022/12/15 00:51:10;;;;;;;34.97;19.30;;;;;;;;;;5053009;28;20095;-72
2022/12/15 01:21:07;;;;;;;36.83;19.77;;;;;;;;;;5054922;28;20045;-72
2022/12/15 01:23:33;;;;;;;34.88;18.90;;;;;;;;;;5019892;28;20044;-72
2022/12/15 01:25:59;;;;;;;33.63;18.63;;;;;;;;;;5055012;28;20045;-72
2022/12/15 01:28:25;;;;;;;30.58;18.45;;;;;;;;;;5019282;28;20045;-72
2022/12/15 01:30:51;;;;;;;33.63;18.83;;;;;;;;;;5054844;28;20410;-72
2022/12/15 01:33:19;;;;;;;35.25;19.23;;;;;;;;;;5051779;28;20100;-72
2022/12/15 01:35:45;;;;;;;34.08;18.23;;;;;;;;;;5051634;28;20083;-72
2022/12/15 01:38:11;;;;;;;33.80;17.95;;;;;;;;;;5018923;28;20044;-72
2022/12/15 01:40:49;;;;;;;34.90;18.15;;;;;;;;;;5036027;28;20041;-72
2022/12/15 01:43:16;;;;;;;35.08;19.02;;;;;;;;;;5046438;28;20049;-72
2022/12/15 01:45:45;;;;;;;32.08;18.55;;;;;;;;;;5035924;28;20041;-72
2022/12/15 01:48:13;;;;;;;30.60;17.65;;;;;;;;;;5053919;28;20140;-72
2022/12/15 01:50:42;;;;;;;34.10;18.95;;;;;;;;;;5053501;28;20049;-71
2022/12/15 01:53:09;;;;;;;33.83;19.05;;;;;;;;;;5052431;28;20036;-72
2022/12/15 01:55:35;;;;;;;32.25;19.08;;;;;;;;;;5035704;28;20102;-72
2022/12/15 01:58:03;;;;;;;30.55;17.80;;;;;;;;;;5051691;28;20045;-72
2022/12/15 02:00:29;;;;;;;30.52;18.30;;;;;;;;;;5032085;28;20407;-72
2022/12/15 02:02:56;;;;;;;32.30;18.15;;;;;;;;;;5031651;28;20045;-72
2022/12/15 02:05:23;;;;;;;29.20;16.58;;;;;;;;;;5054299;28;20041;-72
2022/12/15 02:07:49;;;;;;;32.08;18.13;;;;;;;;;;5053986;28;20491;-72
2022/12/15 02:10:16;;;;;;;33.72;19.38;;;;;;;;;;5019120;28;20063;-72
2022/12/15 02:12:49;;;;;;;32.47;16.75;;;;;;;;;;5054049;28;20037;-72
2022/12/15 02:15:15;;;;;;;32.13;17.95;;;;;;;;;;5052793;28;20041;-72
2022/12/15 02:18:00;;;;;;;31.10;17.77;;;;;;;;;;5054069;28;20045;-72
2022/12/15 02:20:42;;;;;;;32.50;16.77;;;;;;;;;;5029081;28;20045;-72
2022/12/15 02:23:11;;;;;;;30.63;17.45;;;;;;;;;;5053811;28;20049;-72
2022/12/15 02:25:43;;;;;;;32.13;18.35;;;;;;;;;;5035109;28;20067;-72
2022/12/15 02:28:09;;;;;;;29.67;17.25;;;;;;;;;;5052845;28;20048;-72
2022/12/15 02:33:45;;;;;;;30.80;17.13;;;;;;;;;;5041762;28;20053;-72
2022/12/15 02:36:16;;;;;;;30.92;16.48;;;;;;;;;;5051393;28;20136;-72
2022/12/15 02:38:43;;;;;;;32.03;17.08;;;;;;;;;;5034076;28;20053;-72
2022/12/15 02:41:28;;;;;;;28.90;17.50;;;;;;;;;;5052709;28;20128;-72
2022/12/15 02:43:55;;;;;;;29.17;17.15;;;;;;;;;;5040372;28;20110;-72
2022/12/15 02:46:21;;;;;;;31.92;16.92;;;;;;;;;;5052534;28;20048;-72
2022/12/15 02:49:05;;;;;;;33.78;17.55;;;;;;;;;;5034128;28;20078;-72
2022/12/15 02:51:54;;;;;;;32.30;16.52;;;;;;;;;;5051391;28;20053;-72
2022/12/15 02:54:31;;;;;;;28.05;17.45;;;;;;;;;;5049387;28;20041;-72
2022/12/15 02:57:10;;;;;;;30.30;17.08;;;;;;;;;;5052026;28;20053;-73
2022/12/15 02:59:43;;;;;;;29.10;17.17;;;;;;;;;;5050520;28;20044;-72
2022/12/15 03:02:10;;;;;;;27.23;16.38;;;;;;;;;;5049161;28;20132;-72
2022/12/15 03:04:36;;;;;;;28.95;16.77;;;;;;;;;;5050719;28;20053;-72
2022/12/15 03:07:07;;;;;;;32.13;19.23;;;;;;;;;;5051211;28;20045;-72
2022/12/15 03:09:33;;;;;;;31.35;18.33;;;;;;;;;;5052306;28;20103;-72
2022/12/15 03:12:00;;;;;;;32.13;16.73;;;;;;;;;;5052383;28;20128;-72
2022/12/15 03:14:26;;;;;;;32.15;18.25;;;;;;;;;;5018278;28;20053;-72
2022/12/15 03:16:52;;;;;;;27.10;16.05;;;;;;;;;;5052811;28;20041;-72
2022/12/15 03:19:19;;;;;;;31.63;17.27;;;;;;;;;;5033625;28;20049;-71
2022/12/15 03:21:45;;;;;;;30.55;17.13;;;;;;;;;;5052819;28;20045;-72
2022/12/15 03:24:11;;;;;;;29.25;17.58;;;;;;;;;;5053056;28;20048;-72
2022/12/15 03:26:37;;;;;;;28.50;16.38;;;;;;;;;;5053051;28;20041;-72
2022/12/15 03:29:03;;;;;;;30.88;16.52;;;;;;;;;;5052910;28;20514;-72
2022/12/15 03:31:29;;;;;;;29.38;15.82;;;;;;;;;;5051276;28;20048;-72
2022/12/15 03:33:56;;;;;;;30.27;15.65;;;;;;;;;;5051313;28;20457;-72
2022/12/15 03:36:22;;;;;;;27.20;16.23;;;;;;;;;;5050902;28;20095;-72
2022/12/15 03:38:48;;;;;;;28.35;15.73;;;;;;;;;;5052267;28;20045;-72
2022/12/15 03:41:16;;;;;;;27.65;16.08;;;;;;;;;;5051895;28;20041;-72
2022/12/15 03:43:42;;;;;;;25.80;15.63;;;;;;;;;;5052222;28;20049;-72
2022/12/15 03:46:08;;;;;;;30.67;15.95;;;;;;;;;;5050829;28;20044;-72
2022/12/15 03:48:35;;;;;;;27.65;15.25;;;;;;;;;;5051390;28;20080;-72
2022/12/15 03:51:01;;;;;;;30.60;16.55;;;;;;;;;;5051750;28;20041;-72
2022/12/15 03:53:27;;;;;;;28.23;15.57;;;;;;;;;;5050670;28;20102;-72
2022/12/15 03:55:53;;;;;;;26.33;15.48;;;;;;;;;;5034107;28;20037;-72
2022/12/15 03:58:20;;;;;;;27.67;16.13;;;;;;;;;;5051951;28;20099;-72
2022/12/15 04:00:46;;;;;;;25.27;15.18;;;;;;;;;;5051314;28;20052;-72
2022/12/15 04:03:12;;;;;;;27.55;16.45;;;;;;;;;;5031968;28;20056;-72
2022/12/15 04:05:38;;;;;;;24.63;14.98;;;;;;;;;;5033568;28;20037;-72
2022/12/15 04:08:04;;;;;;;26.85;16.58;;;;;;;;;;5051424;28;20041;-72
2022/12/15 04:10:32;;;;;;;28.42;16.75;;;;;;;;;;5051698;28;20055;-72
2022/12/15 04:13:03;;;;;;;25.60;15.07;;;;;;;;;;5051921;28;20414;-72
2022/12/15 04:15:29;;;;;;;;;;;;;;;;;;5052398;28;20049;-72
2022/12/15 04:17:55;;;;;;;29.83;16.15;;;;;;;;;;5051069;28;19927;-72
2022/12/15 04:20:22;;;;;;;30.83;16.80;;;;;;;;;;5030466;28;20044;-72
2022/12/15 04:22:49;;;;;;;28.80;16.48;;;;;;;;;;5051262;28;20041;-72
2022/12/15 05:31:51;;;;;;;28.13;14.52;;;;;;;;;;5051797;28;20049;-72
2022/12/15 05:34:28;;;;;;;25.00;14.20;;;;;;;;;;5048480;28;20098;-72
2022/12/15 05:36:54;;;;;;;25.65;14.13;;;;;;;;;;5051075;28;20041;-72
2022/12/15 05:39:20;;;;;;;24.48;13.18;;;;;;;;;;5051434;28;20048;-72
2022/12/15 05:41:47;;;;;;;22.52;12.63;;;;;;;;;;5053433;28;20037;-72
2022/12/15 05:44:13;;;;;;;23.85;12.85;;;;;;;;;;5050635;28;20055;-72
2022/12/15 05:46:39;;;;;;;23.15;13.45;;;;;;;;;;5052524;28;20506;-72
2022/12/15 05:49:06;;;;;;;25.10;13.75;;;;;;;;;;5051448;28;20091;-72
2022/12/15 05:51:33;;;;;;;25.90;13.13;;;;;;;;;;5053993;28;20048;-72
2022/12/15 05:53:59;;;;;;;29.13;14.45;;;;;;;;;;5053482;28;20041;-72
2022/12/15 05:56:27;;;;;;;26.17;13.23;;;;;;;;;;5053011;28;20183;-72
2022/12/15 05:58:53;;;;;;;22.63;14.10;;;;;;;;;;5035855;28;20053;-72
2022/12/15 06:01:19;;;;;;;24.58;13.07;;;;;;;;;;5042038;28;20057;-72
2022/12/15 06:03:45;;;;;;;25.33;12.93;;;;;;;;;;5053228;28;20041;-72
2022/12/15 06:06:12;;;;;;;24.48;12.75;;;;;;;;;;5052875;28;20124;-72
2022/12/15 06:08:40;;;;;;;22.38;12.77;;;;;;;;;;5051623;28;20128;-72
2022/12/15 06:11:06;;;;;;;21.27;12.30;;;;;;;;;;5018836;28;20056;-72
2022/12/15 06:13:33;;;;;;;21.50;13.18;;;;;;;;;;5053489;28;20045;-72
2022/12/15 06:16:01;;;;;;;22.42;12.98;;;;;;;;;;5033406;28;20051;-72
2022/12/15 06:18:31;;;;;;;22.23;12.40;;;;;;;;;;5051981;28;20082;-72
2022/12/15 06:21:01;;;;;;;25.30;13.25;;;;;;;;;;5018878;28;20049;-72
2022/12/15 06:23:28;;;;;;;24.60;13.17;;;;;;;;;;5052474;28;20049;-73
2022/12/15 06:25:54;;;;;;;24.75;13.15;;;;;;;;;;5053182;28;20055;-72
2022/12/15 06:28:22;;;;;;;22.30;14.27;;;;;;;;;;5053468;28;20049;-73
2022/12/15 06:30:52;;;;;;;21.58;12.85;;;;;;;;;;5053137;28;20067;-72
2022/12/15 06:33:19;;;;;;;22.30;12.88;;;;;;;;;;5051227;28;20068;-73
2022/12/15 06:35:45;;;;;;;23.38;13.10;;;;;;;;;;5035218;28;20112;-73
2022/12/15 06:38:11;;;;;;;21.85;13.10;;;;;;;;;;5053047;28;20056;-72
2022/12/15 06:40:37;;;;;;;24.05;13.18;;;;;;;;;;5051295;28;20416;-73
2022/12/15 06:43:03;;;;;;;22.52;13.30;;;;;;;;;;5033792;28;20537;-72
2022/12/15 06:45:29;;;;;;;24.13;13.73;;;;;;;;;;5053624;28;20396;-72
2022/12/15 06:47:56;;;;;;;23.65;13.55;;;;;;;;;;5032206;28;20045;-72
2022/12/15 06:50:22;;;;;;;20.20;12.63;;;;;;;;;;5048826;28;20127;-73
2022/12/15 06:52:48;;;;;;;22.45;12.55;;;;;;;;;;5051964;28;20057;-72
2022/12/15 06:55:14;;;;;;;22.23;12.75;;;;;;;;;;5052727;28;20049;-72
2022/12/15 06:57:40;;;;;;;22.35;13.73;;;;;;;;;;5047410;28;20041;-72
2022/12/15 07:00:27;;;;;;;20.48;13.02;;;;;;;;;;5028428;28;20409;-72
2022/12/15 07:02:53;;;;;;;22.38;13.38;;;;;;;;;;5047035;28;20045;-72
2022/12/15 07:05:20;;;;;;;24.60;13.55;;;;;;;;;;5050769;28;20049;-73
2022/12/15 07:07:46;;;;;;;26.23;13.35;;;;;;;;;;5050234;28;20045;-73
2022/12/15 07:10:12;;;;;;;22.90;13.40;;;;;;;;;;5052992;28;20049;-72
2022/12/15 07:12:38;;;;;;;23.52;13.52;;;;;;;;;;5031212;28;20538;-72
2022/12/15 07:15:06;;;;;;;20.85;12.70;;;;;;;;;;5045831;28;20037;-72
2022/12/15 07:17:33;;;;;;;28.42;13.07;;;;;;;;;;5043697;28;20072;-73
2022/12/15 07:19:59;;;;;;;20.65;13.13;;;;;;;;;;5030765;28;20552;-72
2022/12/15 07:22:25;;;;;;;25.83;13.45;;;;;;;;;;5032040;28;20483;-73
2022/12/15 07:24:51;;;;;;;22.40;13.52;;;;;;;;;;5051827;28;20510;-73
2022/12/15 07:27:17;;;;;;;23.70;13.90;;;;;;;;;;5050338;28;20376;-73
2022/12/15 07:29:43;;;;;;;23.63;13.07;;;;;;;;;;5051871;28;20053;-73
2022/12/15 07:32:09;;;;;;;27.33;13.65;;;;;;;;;;5050745;28;20072;-73
2022/12/15 07:34:35;;;;;;;25.00;13.13;;;;;;;;;;5036888;28;20106;-73
2022/12/15 07:37:01;;;;;;;23.25;13.65;;;;;;;;;;5036432;28;20419;-73
2022/12/15 07:39:27;;;;;;;21.90;12.90;;;;;;;;;;5050836;28;20049;-73
2022/12/15 07:41:53;;;;;;;24.13;13.07;;;;;;;;;;5050836;28;20056;-73
2022/12/15 07:44:19;;;;;;;22.60;13.20;;;;;;;;;;5032900;28;20503;-73
2022/12/15 07:46:47;;;;;;;21.75;12.55;;;;;;;;;;5050524;28;20041;-73
2022/12/15 07:49:14;;;;;;;20.58;13.02;;;;;;;;;;5051064;28;20084;-73
2022/12/15 07:51:40;;;;;;;22.77;15.82;;;;;;;;;;5048983;28;20091;-73
2022/12/15 07:54:06;;;;;;;25.00;13.40;;;;;;;;;;5032106;28;20049;-73
2022/12/15 07:56:32;;;;;;;22.83;13.85;;;;;;;;;;5031690;28;20045;-73
2022/12/15 07:58:58;;;;;;;20.40;12.90;;;;;;;;;;5026387;28;20057;-73
2022/12/15 08:01:24;;;;;;;23.02;12.45;;;;;;;;;;5051796;28;20060;-73
2022/12/15 08:03:50;;;;;;;22.58;12.23;;;;;;;;;;5055057;28;20164;-73
2022/12/15 08:06:16;;;;;;;24.88;12.38;;;;;;;;;;5053445;28;20060;-72
2022/12/15 08:08:44;;;;;;;23.88;13.40;;;;;;;;;;5054492;28;20414;-72
2022/12/15 08:11:12;;;;;;;22.35;13.00;;;;;;;;;;5053967;28;20443;-72
2022/12/15 08:13:39;;;;;;;23.20;13.02;;;;;;;;;;5053670;28;20041;-72
2022/12/15 08:16:05;;;;;;;21.60;13.23;;;;;;;;;;5055068;28;20502;-72
2022/12/15 08:18:31;;;;;;;23.38;13.25;;;;;;;;;;5054869;28;20041;-72
2022/12/15 08:21:04;;;;;;;24.88;13.48;;;;;;;;;;5054496;28;20490;-72
2022/12/15 08:23:30;;;;;;;22.35;12.85;;;;;;;;;;5035543;28;20048;-72
2022/12/15 08:26:04;;;;;;;23.20;13.30;;;;;;;;;;5054436;28;20045;-72
2022/12/15 08:28:31;;;;;;;23.90;13.23;;;;;;;;;;5035153;28;20622;-72
2022/12/15 08:31:02;;;;;;;22.67;13.10;;;;;;;;;;5038891;28;20084;-72
2022/12/15 08:33:28;;;;;;;21.42;13.73;;;;;;;;;;5055156;28;20453;-72
2022/12/15 08:35:57;;;;;;;24.40;13.80;;;;;;;;;;5053610;28;20053;-72
2022/12/15 08:38:23;;;;;;;23.42;13.55;;;;;;;;;;5054869;28;20048;-72
2022/12/15 08:40:49;;;;;;;23.08;13.25;;;;;;;;;;5054645;28;20048;-72
2022/12/15 08:43:15;;;;;;;21.95;13.75;;;;;;;;;;5054930;28;20053;-72
2022/12/15 08:45:41;;;;;;;25.88;14.85;;;;;;;;;;5049929;28;20058;-72
2022/12/15 08:48:07;;;;;;;26.48;14.75;;;;;;;;;;5052543;28;20045;-72
2022/12/15 08:50:33;;;;;;;26.23;15.25;;;;;;;;;;5053477;28;20041;-72
2022/12/15 08:52:59;;;;;;;25.17;14.93;;;;;;;;;;5054504;28;20109;-72
2022/12/15 08:55:25;;;;;;;25.00;15.70;;;;;;;;;;5053663;28;20048;-73
2022/12/15 08:57:53;;;;;;;22.33;15.05;;;;;;;;;;5050588;28;20441;-72
2022/12/15 09:00:19;;;;;;;26.85;15.65;;;;;;;;;;5046623;28;20045;-72
2022/12/15 09:02:45;;;;;;;24.60;16.17;;;;;;;;;;5036400;28;20045;-73
2022/12/15 09:05:11;;;;;;;24.23;15.65;;;;;;;;;;5035711;28;20130;-72
2022/12/15 09:07:38;;;;;;;23.70;14.50;;;;;;;;;;5046747;28;20091;-72
2022/12/15 09:10:04;;;;;;;28.88;16.20;;;;;;;;;;5046564;28;20049;-73
2022/12/15 09:12:30;;;;;;;25.40;16.02;;;;;;;;;;5052964;28;20069;-72
2022/12/15 09:14:56;;;;;;;24.58;15.07;;;;;;;;;;5053507;28;20126;-72
2022/12/15 09:17:22;;;;;;;28.08;15.82;;;;;;;;;;5054374;28;20045;-72
2022/12/15 09:19:48;;;;;;;27.98;17.38;;;;;;;;;;5053548;28;20059;-72
2022/12/15 09:22:14;;;;;;;25.45;16.55;;;;;;;;;;5032593;28;20100;-73
2022/12/15 09:24:40;;;;;;;26.17;16.45;;;;;;;;;;5034485;28;20053;-72
2022/12/15 09:27:06;;;;;;;27.27;15.30;;;;;;;;;;5000684;28;20056;-73
2022/12/15 09:29:32;;;;;;;26.33;17.70;;;;;;;;;;5027529;28;20053;-73
2022/12/15 09:31:58;;;;;;;28.85;16.80;;;;;;;;;;5051933;28;20061;-72
2022/12/15 09:34:25;;;;;;;24.52;16.90;;;;;;;;;;5053951;28;20107;-72
2022/12/15 09:36:51;;;;;;;25.90;15.60;;;;;;;;;;5052455;28;20068;-72
2022/12/15 09:39:17;;;;;;;26.13;16.30;;;;;;;;;;5053573;28;20495;-73
2022/12/15 09:41:49;;;;;;;22.05;15.20;;;;;;;;;;5054136;28;20084;-72
2022/12/15 09:44:18;;;;;;;23.33;15.23;;;;;;;;;;5053984;28;20103;-73
2022/12/15 09:47:06;;;;;;;22.90;14.15;;;;;;;;;;5053888;28;20048;-72
2022/12/15 09:49:38;;;;;;;24.10;14.73;;;;;;;;;;5046841;28;20101;-71
2022/12/15 09:52:06;;;;;;;24.42;16.20;;;;;;;;;;5033885;28;20112;-73
2022/12/15 09:54:33;;;;;;;21.50;13.95;;;;;;;;;;5049266;28;20082;-72
2022/12/15 09:57:05;;;;;;;23.95;13.80;;;;;;;;;;5051769;28;20045;-73
2022/12/15 09:59:49;;;;;;;22.85;14.57;;;;;;;;;;5053262;28;20120;-73
2022/12/15 10:02:15;;;;;;;22.25;13.60;;;;;;;;;;5052964;28;20048;-72
2022/12/15 10:05:05;;;;;;;20.50;14.50;;;;;;;;;;5046497;28;20084;-73
2022/12/15 10:07:40;;;;;;;20.85;14.07;;;;;;;;;;5033556;28;20091;-72
2022/12/15 10:10:15;;;;;;;24.73;14.70;;;;;;;;;;5052727;28;20033;-72
2022/12/15 10:12:41;;;;;;;25.67;15.05;;;;;;;;;;5053644;28;20063;-73
2022/12/15 10:15:17;;;;;;;24.70;14.88;;;;;;;;;;5053464;28;20503;-73
2022/12/15 10:17:47;;;;;;;20.83;13.57;;;;;;;;;;5051031;28;20049;-72
2022/12/15 10:20:17;;;;;;;25.85;15.00;;;;;;;;;;5034479;28;20116;-72
2022/12/15 10:22:43;;;;;;;23.75;14.48;;;;;;;;;;5052169;28;20132;-72
2022/12/15 10:25:18;;;;;;;20.20;13.48;;;;;;;;;;5048679;28;20045;-72
2022/12/15 10:27:45;;;;;;;23.23;14.27;;;;;;;;;;5050666;28;20056;-73
2022/12/15 10:30:12;;;;;;;21.25;13.27;;;;;;;;;;5053022;28;20388;-72
2022/12/15 10:32:54;;;;;;;20.38;13.63;;;;;;;;;;5049722;28;20041;-72
2022/12/15 10:35:26;;;;;;;22.45;13.40;;;;;;;;;;5052229;28;20060;-72
2022/12/15 10:37:54;;;;;;;18.55;12.15;;;;;;;;;;5051657;28;20063;-72
2022/12/15 10:40:40;;;;;;;21.77;13.30;;;;;;;;;;5052834;28;20391;-73
2022/12/15 10:43:12;;;;;;;22.55;13.85;;;;;;;;;;5051889;28;20049;-72
2022/12/15 10:45:38;;;;;;;20.55;13.18;;;;;;;;;;5052518;28;20041;-72
2022/12/15 10:48:05;;;;;;;21.17;13.30;;;;;;;;;;5053479;28;20051;-72
2022/12/15 10:50:32;;;;;;;22.27;13.77;;;;;;;;;;5053519;28;20072;-72
2022/12/15 10:52:58;;;;;;;21.42;13.05;;;;;;;;;;5053254;28;20094;-73
2022/12/15 10:55:41;;;;;;;19.65;13.23;;;;;;;;;;5050672;28;20044;-72
2022/12/15 10:58:20;;;;;;;17.38;11.73;;;;;;;;;;5048812;28;20415;-72
2022/12/15 11:00:50;;;;;;;20.02;12.73;;;;;;;;;;5032350;28;20147;-73
2022/12/15 11:03:23;;;;;;;19.67;12.82;;;;;;;;;;5052159;28;20073;-71
2022/12/15 11:05:53;;;;;;;21.33;13.27;;;;;;;;;;5051749;28;20503;-72
2022/12/15 11:08:20;;;;;;;22.27;14.13;;;;;;;;;;5051970;28;20120;-73
2022/12/15 11:14:02;;;;;;;20.33;12.73;;;;;;;;;;5048469;28;20061;-72
2022/12/15 11:16:30;;;;;;;21.42;13.88;;;;;;;;;;5049560;28;20044;-73
2022/12/15 11:19:11;;;;;;;23.23;14.57;;;;;;;;;;5052330;28;20056;-72
2022/12/15 11:21:47;;;;;;;23.27;14.13;;;;;;;;;;5051278;28;20562;-73
2022/12/15 11:24:20;;;;;;;21.80;13.50;;;;;;;;;;5047060;28;20064;-72
2022/12/15 11:27:04;;;;;;;24.65;14.32;;;;;;;;;;5047341;28;20048;-72
2022/12/15 11:29:39;;;;;;;23.77;13.80;;;;;;;;;;5040312;28;20053;-72
2022/12/15 11:32:05;;;;;;;20.13;13.18;;;;;;;;;;5045053;28;20060;-72
2022/12/15 11:34:31;;;;;;;23.17;14.02;;;;;;;;;;5051123;28;20084;-72
2022/12/15 11:37:16;;;;;;;23.27;14.40;;;;;;;;;;5042832;28;20049;-72
2022/12/15 11:39:42;;;;;;;26.20;14.05;;;;;;;;;;5051182;28;20441;-72
2022/12/15 11:42:18;;;;;;;19.20;12.80;;;;;;;;;;5044666;28;20561;-72
2022/12/15 11:44:44;;;;;;;20.42;13.63;;;;;;;;;;5032697;28;20049;-72
2022/12/15 11:47:10;;;;;;;26.20;13.52;;;;;;;;;;5051561;28;20060;-72
2022/12/15 11:49:39;;;;;;;21.50;13.45;;;;;;;;;;5048137;28;20052;-72
2022/12/15 11:52:09;;;;;;;21.40;14.20;;;;;;;;;;5049756;28;20055;-72
2022/12/15 11:54:46;;;;;;;21.25;13.15;;;;;;;;;;5050326;28;20490;-72
2022/12/15 11:57:31;;;;;;;19.90;13.05;;;;;;;;;;5051886;28;20053;-73
2022/12/15 12:00:05;;;;;;;23.00;13.32;;;;;;;;;;5050330;28;20124;-72
2022/12/15 12:02:51;;;;;;;23.20;13.40;;;;;;;;;;5051672;28;20094;-72
2022/12/15 12:05:31;;;;;;;23.67;14.18;;;;;;;;;;5033903;28;20400;-72
2022/12/15 12:08:00;;;;;;;19.75;12.80;;;;;;;;;;5048631;28;20128;-72
2022/12/15 12:10:26;;;;;;;24.63;13.75;;;;;;;;;;5051109;28;20052;-72
2022/12/15 12:12:55;;;;;;;24.30;14.07;;;;;;;;;;5023028;28;20102;-72
2022/12/15 12:15:27;;;;;;;19.45;13.27;;;;;;;;;;5028688;28;20049;-72
2022/12/15 12:17:57;;;;;;;22.98;14.05;;;;;;;;;;5049970;28;20057;-72
2022/12/15 12:20:26;;;;;;;19.98;12.65;;;;;;;;;;5051117;28;20135;-73
2022/12/15 12:22:58;;;;;;;20.98;12.88;;;;;;;;;;5049402;28;20063;-72
2022/12/15 12:25:25;;;;;;;23.13;13.50;;;;;;;;;;5050785;28;20045;-72
2022/12/15 12:27:54;;;;;;;24.17;13.90;;;;;;;;;;5051346;28;20052;-72
2022/12/15 12:30:21;;;;;;;20.95;13.95;;;;;;;;;;5050912;28;20048;-72
2022/12/15 12:32:58;;;;;;;20.70;13.43;;;;;;;;;;5048221;28;20048;-72
2022/12/15 12:35:39;;;;;;;24.77;13.60;;;;;;;;;;5049791;28;20037;-72
2022/12/15 12:38:06;;;;;;;24.35;13.38;;;;;;;;;;5048452;28;20482;-71
2022/12/15 12:40:32;;;;;;;23.17;14.25;;;;;;;;;;5030463;28;20137;-72
2022/12/15 12:42:59;;;;;;;22.95;13.50;;;;;;;;;;5051230;28;20041;-72
2022/12/15 12:45:32;;;;;;;23.35;13.95;;;;;;;;;;5048677;28;20045;-72
2022/12/15 12:48:01;;;;;;;19.02;12.90;;;;;;;;;;5053426;28;20045;-72
2022/12/15 12:50:28;;;;;;;24.15;14.30;;;;;;;;;;5050190;28;20357;-72
2022/12/15 12:52:58;;;;;;;22.58;14.15;;;;;;;;;;5037393;28;20053;-72
2022/12/15 12:55:45;;;;;;;25.02;15.13;;;;;;;;;;5046466;28;20044;-72
2022/12/15 12:58:29;;;;;;;20.45;14.18;;;;;;;;;;5044346;28;20041;-72
2022/12/15 13:01:06;;;;;;;25.90;15.02;;;;;;;;;;5051823;28;20075;-72
2022/12/15 13:03:32;;;;;;;22.40;14.15;;;;;;;;;;5041038;28;20041;-71
2022/12/15 13:05:58;;;;;;;24.95;15.38;;;;;;;;;;5046339;28;20045;-71
2022/12/15 13:08:44;;;;;;;25.80;16.00;;;;;;;;;;5045517;28;20052;-72
2022/12/15 13:11:29;;;;;;;24.33;15.75;;;;;;;;;;5035059;28;20087;-72
2022/12/15 13:13:55;;;;;;;22.15;15.80;;;;;;;;;;5050251;28;20040;-72
2022/12/15 13:16:26;;;;;;;25.98;16.33;;;;;;;;;;5031397;28;20045;-72
2022/12/15 13:19:03;;;;;;;24.00;16.17;;;;;;;;;;5053551;28;20037;-71
2022/12/15 13:21:41;;;;;;;25.73;16.58;;;;;;;;;;5038922;28;20045;-72
2022/12/15 13:24:25;;;;;;;29.83;17.45;;;;;;;;;;5053478;28;20139;-71
2022/12/15 13:26:51;;;;;;;25.40;16.73;;;;;;;;;;5053590;28;20053;-72
2022/12/15 13:29:19;;;;;;;28.45;16.58;;;;;;;;;;5048978;28;20045;-71
2022/12/15 13:31:47;;;;;;;24.75;16.83;;;;;;;;;;5051663;28;20051;-72
2022/12/15 13:34:16;;;;;;;23.02;15.93;;;;;;;;;;5052138;28;20409;-72
2022/12/15 13:36:45;;;;;;;21.38;16.35;;;;;;;;;;5047563;28;20048;-71
2022/12/15 13:39:11;;;;;;;28.67;17.92;;;;;;;;;;5049493;28;20045;-72
2022/12/15 13:41:38;;;;;;;23.13;16.13;;;;;;;;;;5052963;28;20123;-72
2022/12/15 13:44:14;;;;;;;25.27;17.63;;;;;;;;;;5053776;28;20069;-72
2022/12/15 13:46:43;;;;;;;24.15;17.75;;;;;;;;;;5054059;28;20053;-72
2022/12/15 13:49:26;;;;;;;25.13;17.98;;;;;;;;;;5032845;28;20045;-72
2022/12/15 13:51:58;;;;;;;28.90;18.90;;;;;;;;;;5049684;28;20500;-72
2022/12/15 13:54:29;;;;;;;27.40;18.27;;;;;;;;;;5045199;28;20049;-71
2022/12/15 13:57:01;;;;;;;26.90;18.25;;;;;;;;;;5049174;28;20045;-72
2022/12/15 13:59:33;;;;;;;31.05;18.85;;;;;;;;;;5052252;28;20048;-72
2022/12/15 14:01:59;;;;;;;27.33;18.17;;;;;;;;;;5052523;28;20056;-72
2022/12/15 14:04:25;;;;;;;26.13;18.58;;;;;;;;;;5052544;28;20040;-71
2022/12/15 14:07:00;;;;;;;26.95;18.73;;;;;;;;;;5052284;28;20040;-72
2022/12/15 14:09:31;;;;;;;29.50;19.33;;;;;;;;;;5049337;28;20041;-72
2022/12/15 14:11:57;;;;;;;26.05;18.23;;;;;;;;;;5046205;28;20064;-72
2022/12/15 14:14:25;;;;;;;29.55;19.77;;;;;;;;;;5053185;28;20037;-72
2022/12/15 14:16:52;;;;;;;27.73;18.63;;;;;;;;;;5042564;28;20415;-72
2022/12/15 14:19:18;;;;;;;29.50;19.73;;;;;;;;;;5020521;28;20044;-72
2022/12/15 14:21:51;;;;;;;31.58;18.75;;;;;;;;;;5051216;28;20111;-72
2022/12/15 14:24:40;;;;;;;29.50;18.77;;;;;;;;;;5052646;28;20132;-72
2022/12/15 14:27:06;;;;;;;28.83;19.00;;;;;;;;;;5043993;28;20463;-72
2022/12/15 14:29:32;;;;;;;35.83;23.13;;;;;;;;;;5052557;28;20048;-72
2022/12/15 14:31:59;;;;;;;37.45;27.40;;;;;;;;;;5052251;28;20049;-72
2022/12/15 14:34:31;;;;;;;37.40;28.02;;;;;;;;;;5050627;28;20052;-72
2022/12/15 14:36:58;;;;;;;31.90;23.33;;;;;;;;;;5051211;28;20045;-72
2022/12/15 14:39:37;;;;;;;28.55;19.83;;;;;;;;;;5048056;28;20120;-72
2022/12/15 14:42:03;;;;;;;34.70;20.70;;;;;;;;;;5048241;28;20048;-71
2022/12/15 14:44:31;;;;;;;27.90;20.38;;;;;;;;;;5050970;28;20132;-71
2022/12/15 14:46:59;;;;;;;31.77;19.80;;;;;;;;;;5051094;28;20052;-71
2022/12/15 14:49:27;;;;;;;29.42;19.55;;;;;;;;;;5052427;28;20095;-72
2022/12/15 14:51:57;;;;;;;26.45;18.98;;;;;;;;;;5046126;28;20076;-71
2022/12/15 14:54:34;;;;;;;28.88;20.27;;;;;;;;;;5051928;28;20406;-72
2022/12/15 14:57:01;;;;;;;32.88;21.50;;;;;;;;;;5024012;28;20413;-71
2022/12/15 14:59:30;;;;;;;31.35;19.73;;;;;;;;;;5047342;28;20079;-73
2022/12/15 15:02:11;;;;;;;26.35;18.65;;;;;;;;;;5048084;28;20071;-71
2022/12/15 15:04:37;;;;;;;28.87;20.73;;;;;;;;;;5050710;28;20041;-72
2022/12/15 15:07:06;;;;;;;28.70;19.88;;;;;;;;;;5050643;28;20075;-72
2022/12/15 15:09:39;;;;;;;28.52;19.40;;;;;;;;;;5051948;28;20041;-72
2022/12/15 15:12:05;;;;;;;35.65;21.48;;;;;;;;;;5048689;28;20187;-72
2022/12/15 15:15:01;;;;;;;27.92;20.20;;;;;;;;;;5032106;28;20053;-72
2022/12/15 15:17:59;;;;;;;29.48;21.23;;;;;;;;;;5031190;28;20490;-73
2022/12/15 15:20:30;;;;;;;31.17;21.55;;;;;;;;;;4992374;28;20662;-72
2022/12/15 15:23:09;;;;;;;31.95;21.33;;;;;;;;;;5049491;28;20106;-72
2022/12/15 15:25:38;;;;;;;29.13;21.27;;;;;;;;;;5046388;28;20625;-72
2022/12/15 15:28:17;;;;;;;31.40;22.52;;;;;;;;;;5043411;28;20049;-72
2022/12/15 15:30:44;;;;;;;36.92;25.88;;;;;;;;;;5050351;28;20057;-72
2022/12/15 15:33:12;;;;;;;35.22;26.80;;;;;;;;;;5050238;28;20056;-71
2022/12/15 15:35:38;;;;;;;34.15;23.50;;;;;;;;;;5045279;28;20053;-71
2022/12/15 15:38:07;;;;;;;34.60;24.00;;;;;;;;;;5047668;28;20045;-71
2022/12/15 15:40:33;;;;;;;35.90;24.88;;;;;;;;;;5049081;28;20110;-71
2022/12/15 15:42:59;;;;;;;32.47;23.92;;;;;;;;;;5049083;28;20060;-71
2022/12/15 15:45:25;;;;;;;29.25;22.13;;;;;;;;;;5023453;28;20041;-71
2022/12/15 15:47:52;;;;;;;34.92;24.40;;;;;;;;;;5049473;28;20037;-71
2022/12/15 15:50:27;;;;;;;33.97;24.45;;;;;;;;;;5031545;28;20048;-71
2022/12/15 15:52:53;;;;;;;35.20;22.60;;;;;;;;;;5051936;28;20080;-71
2022/12/15 15:55:23;;;;;;;34.22;23.42;;;;;;;;;;5049034;28;20041;-71
2022/12/15 15:57:49;;;;;;;38.35;22.65;;;;;;;;;;5049857;28;20048;-71
2022/12/15 16:00:20;;;;;;;32.13;23.65;;;;;;;;;;5027284;28;20052;-71
2022/12/15 16:02:46;;;;;;;;;;;;;;;;;;5032255;28;20487;-71
2022/12/15 16:05:13;;;;;;;37.55;22.27;;;;;;;;;;5024035;28;19921;-71
2022/12/15 16:07:40;;;;;;;35.47;22.58;;;;;;;;;;5024085;28;20052;-71
2022/12/15 16:10:11;;;;;;;38.15;24.42;;;;;;;;;;5029468;28;20128;-71
2022/12/15 16:12:41;;;;;;;32.00;23.52;;;;;;;;;;5030096;28;20508;-71
2022/12/15 16:15:27;;;;;;;35.00;23.05;;;;;;;;;;5023909;28;20103;-71
2022/12/15 16:17:53;;;;;;;33.28;24.15;;;;;;;;;;5024425;28;20111;-71
2022/12/15 16:20:20;;;;;;;37.13;24.02;;;;;;;;;;5015199;28;20042;-71
2022/12/15 16:22:49;;;;;;;33.30;24.25;;;;;;;;;;5031400;28;20065;-71
2022/12/15 16:25:18;;;;;;;33.60;23.42;;;;;;;;;;5035693;28;20073;-71
2022/12/15 16:27:44;;;;;;;38.83;24.98;;;;;;;;;;5018926;28;20053;-72
2022/12/15 16:30:14;;;;;;;38.15;24.80;;;;;;;;;;5034885;28;20041;-72
2022/12/15 16:32:41;;;;;;;38.40;24.80;;;;;;;;;;5036069;28;20049;-72
2022/12/15 16:35:07;;;;;;;35.72;24.75;;;;;;;;;;5036110;28;20060;-72
2022/12/15 16:37:34;;;;;;;38.05;25.85;;;;;;;;;;5031112;28;20041;-72
2022/12/15 16:40:00;;;;;;;35.28;25.80;;;;;;;;;;5015127;28;20050;-72
2022/12/15 16:42:26;;;;;;;34.72;24.40;;;;;;;;;;5029789;28;20395;-71
2022/12/15 16:44:52;;;;;;;36.33;25.63;;;;;;;;;;5031677;28;20404;-72
2022/12/15 16:47:18;;;;;;;38.25;25.23;;;;;;;;;;5032213;28;20041;-71
2022/12/15 16:49:44;;;;;;;36.10;25.20;;;;;;;;;;5031926;28;20049;-72
2022/12/15 16:52:18;;;;;;;36.97;26.13;;;;;;;;;;5028135;28;20057;-72
2022/12/15 16:54:47;;;;;;;35.88;25.67;;;;;;;;;;5030573;28;20033;-71